EJA209 KLIT-KAUS
Flight info
| Callsign | EJA209 |
|---|---|
| Flight time | 1h 4m |
| Altitude | 40000 |
| Route | CIPOP TXK WINDU SEWZY6 |
| Aircraft | CL60/M-SADE3FGHIJ3J4J7P2RWXY/HB1D1 |
Departure
| Time | 2026-04-21 20:51 |
|---|---|
| Airport | Bill & Hillary Clinton National Airport/Adams Field (KLIT) |
Arrival
| Time | 2026-04-21 21:56 |
|---|---|
| Airport | Austin Bergstrom International Airport (KAUS) |
| Time | Latitude | Longitude | Altitude | Speed | Heading |
|---|---|---|---|---|---|
| 2026-04-21 20:12 | 34.73294 | -92.24030 | 261 ft | 0 kts | 1° |
| 2026-04-21 20:40 | 34.73317 | -92.24021 | 261 ft | 5 kts | 43° |
| 2026-04-21 20:40 | 34.73314 | -92.23983 | 261 ft | 7 kts | 144° |
| 2026-04-21 20:41 | 34.73253 | -92.23968 | 261 ft | 10 kts | 180° |
| 2026-04-21 20:41 | 34.73172 | -92.23970 | 262 ft | 12 kts | 182° |
| 2026-04-21 20:41 | 34.73122 | -92.23965 | 262 ft | 5 kts | 156° |
| 2026-04-21 20:41 | 34.73104 | -92.23910 | 262 ft | 10 kts | 87° |
| 2026-04-21 20:42 | 34.73101 | -92.23800 | 261 ft | 15 kts | 92° |
| 2026-04-21 20:42 | 34.73099 | -92.23664 | 261 ft | 16 kts | 91° |
| 2026-04-21 20:42 | 34.73097 | -92.23515 | 261 ft | 19 kts | 91° |
| 2026-04-21 20:42 | 34.73094 | -92.23333 | 261 ft | 23 kts | 91° |
| 2026-04-21 20:43 | 34.73079 | -92.23197 | 261 ft | 13 kts | 130° |
| 2026-04-21 20:43 | 34.73000 | -92.23119 | 261 ft | 14 kts | 142° |
| 2026-04-21 20:43 | 34.72995 | -92.23048 | 261 ft | 11 kts | 43° |
| 2026-04-21 20:43 | 34.73061 | -92.22963 | 261 ft | 16 kts | 47° |
| 2026-04-21 20:44 | 34.73122 | -92.22878 | 262 ft | 8 kts | 71° |
| 2026-04-21 20:44 | 34.73087 | -92.22813 | 262 ft | 11 kts | 139° |
| 2026-04-21 20:44 | 34.73020 | -92.22738 | 262 ft | 14 kts | 134° |
| 2026-04-21 20:44 | 34.73009 | -92.22643 | 262 ft | 14 kts | 47° |
| 2026-04-21 20:45 | 34.73087 | -92.22543 | 262 ft | 18 kts | 46° |
| 2026-04-21 20:45 | 34.73152 | -92.22434 | 263 ft | 13 kts | 98° |
| 2026-04-21 20:45 | 34.73114 | -92.22317 | 263 ft | 16 kts | 110° |
| 2026-04-21 20:45 | 34.73074 | -92.22191 | 263 ft | 4 kts | 110° |
| 2026-04-21 20:46 | 34.73069 | -92.22137 | 263 ft | 8 kts | 68° |
| 2026-04-21 20:46 | 34.73137 | -92.22094 | 263 ft | 13 kts | 20° |
| 2026-04-21 20:46 | 34.73222 | -92.22028 | 263 ft | 16 kts | 79° |
| 2026-04-21 20:46 | 34.73182 | -92.21884 | 263 ft | 20 kts | 112° |
| 2026-04-21 20:47 | 34.73112 | -92.21777 | 263 ft | 12 kts | 153° |
| 2026-04-21 20:47 | 34.73066 | -92.21681 | 263 ft | 15 kts | 114° |
| 2026-04-21 20:47 | 34.73016 | -92.21551 | 263 ft | 18 kts | 115° |
| 2026-04-21 20:47 | 34.72959 | -92.21394 | 263 ft | 22 kts | 114° |
| 2026-04-21 20:48 | 34.72895 | -92.21217 | 262 ft | 14 kts | 108° |
| 2026-04-21 20:48 | 34.72939 | -92.21102 | 262 ft | 17 kts | 45° |
| 2026-04-21 20:48 | 34.73032 | -92.20982 | 262 ft | 21 kts | 47° |
| 2026-04-21 20:48 | 34.73146 | -92.20837 | 262 ft | 25 kts | 46° |
| 2026-04-21 20:49 | 34.73276 | -92.20672 | 262 ft | 27 kts | 46° |
| 2026-04-21 20:49 | 34.73399 | -92.20507 | 262 ft | 26 kts | 52° |
| 2026-04-21 20:49 | 34.73501 | -92.20345 | 262 ft | 23 kts | 52° |
| 2026-04-21 20:49 | 34.73554 | -92.20231 | 262 ft | 12 kts | 96° |
| 2026-04-21 20:50 | 34.73499 | -92.20149 | 262 ft | 5 kts | 137° |
| 2026-04-21 20:50 | 34.73461 | -92.20170 | 262 ft | 8 kts | 234° |
| 2026-04-21 20:50 | 34.73417 | -92.20232 | 262 ft | 12 kts | 226° |
| 2026-04-21 20:50 | 34.73100 | -92.20640 | 263 ft | 122 kts | 226° |
| 2026-04-21 20:51 | 34.72327 | -92.21587 | 600 ft | 179 kts | 224° |
| 2026-04-21 20:51 | 34.71407 | -92.22592 | 1586 ft | 196 kts | 221° |
| 2026-04-21 20:51 | 34.70396 | -92.23684 | 2389 ft | 198 kts | 221° |
| 2026-04-21 20:51 | 34.69394 | -92.24786 | 3195 ft | 198 kts | 225° |
| 2026-04-21 20:52 | 34.68407 | -92.26088 | 4088 ft | 225 kts | 228° |
| 2026-04-21 20:52 | 34.67388 | -92.27624 | 5199 ft | 245 kts | 231° |
| 2026-04-21 20:52 | 34.66354 | -92.29272 | 6427 ft | 254 kts | 231° |
| 2026-04-21 20:52 | 34.65286 | -92.30969 | 7714 ft | 260 kts | 230° |
| 2026-04-21 20:53 | 34.64204 | -92.32688 | 9023 ft | 266 kts | 230° |
| 2026-04-21 20:53 | 34.63088 | -92.34460 | 10365 ft | 271 kts | 230° |
| 2026-04-21 20:53 | 34.61952 | -92.36260 | 11646 ft | 278 kts | 231° |
| 2026-04-21 20:53 | 34.60760 | -92.38150 | 12809 ft | 289 kts | 232° |
| 2026-04-21 20:54 | 34.59527 | -92.40102 | 13742 ft | 305 kts | 232° |
| 2026-04-21 20:54 | 34.58205 | -92.42197 | 14617 ft | 322 kts | 233° |
| 2026-04-21 20:54 | 34.56802 | -92.44418 | 15483 ft | 337 kts | 234° |
| 2026-04-21 20:54 | 34.55366 | -92.46692 | 16395 ft | 347 kts | 234° |
| 2026-04-21 20:55 | 34.53893 | -92.49020 | 17340 ft | 355 kts | 234° |
| 2026-04-21 20:55 | 34.52373 | -92.51422 | 18337 ft | 360 kts | 235° |
| 2026-04-21 20:55 | 34.50866 | -92.53801 | 19365 ft | 362 kts | 235° |
| 2026-04-21 20:55 | 34.49327 | -92.56228 | 20253 ft | 368 kts | 234° |
| 2026-04-21 20:56 | 34.47762 | -92.58694 | 21088 ft | 373 kts | 234° |
| 2026-04-21 20:56 | 34.46171 | -92.61198 | 21945 ft | 377 kts | 234° |
| 2026-04-21 20:56 | 34.44573 | -92.63713 | 22741 ft | 381 kts | 234° |
| 2026-04-21 20:56 | 34.42952 | -92.66261 | 23565 ft | 384 kts | 234° |
| 2026-04-21 20:57 | 34.41321 | -92.68824 | 24408 ft | 387 kts | 234° |
| 2026-04-21 20:57 | 34.39680 | -92.71399 | 25258 ft | 388 kts | 234° |
| 2026-04-21 20:57 | 34.38039 | -92.73972 | 26107 ft | 389 kts | 233° |
| 2026-04-21 20:57 | 34.36382 | -92.76569 | 26954 ft | 389 kts | 234° |
| 2026-04-21 20:58 | 34.34739 | -92.79141 | 27647 ft | 392 kts | 233° |
| 2026-04-21 20:58 | 34.33064 | -92.81763 | 28338 ft | 394 kts | 234° |
| 2026-04-21 20:58 | 34.31384 | -92.84391 | 28920 ft | 398 kts | 234° |
| 2026-04-21 20:58 | 34.29683 | -92.87050 | 29437 ft | 403 kts | 234° |
| 2026-04-21 20:59 | 34.27962 | -92.89738 | 29953 ft | 407 kts | 234° |
| 2026-04-21 20:59 | 34.26223 | -92.92451 | 30419 ft | 412 kts | 234° |
| 2026-04-21 20:59 | 34.24558 | -92.95049 | 30869 ft | 415 kts | 234° |
| 2026-04-21 20:59 | 34.22780 | -92.97817 | 31407 ft | 417 kts | 234° |
| 2026-04-21 21:00 | 34.20997 | -93.00592 | 31889 ft | 419 kts | 234° |
| 2026-04-21 21:00 | 34.19176 | -93.03425 | 32311 ft | 422 kts | 234° |
| 2026-04-21 21:00 | 34.17373 | -93.06228 | 32762 ft | 424 kts | 234° |
| 2026-04-21 21:00 | 34.15558 | -93.09044 | 33196 ft | 425 kts | 234° |
| 2026-04-21 21:01 | 34.13751 | -93.11848 | 33758 ft | 423 kts | 234° |
| 2026-04-21 21:01 | 34.11953 | -93.14634 | 34272 ft | 420 kts | 234° |
| 2026-04-21 21:01 | 34.10166 | -93.17400 | 34668 ft | 418 kts | 234° |
| 2026-04-21 21:01 | 34.08363 | -93.20192 | 35021 ft | 418 kts | 234° |
| 2026-04-21 21:02 | 34.06597 | -93.22923 | 35346 ft | 418 kts | 234° |
| 2026-04-21 21:02 | 34.04785 | -93.25724 | 35686 ft | 418 kts | 234° |
| 2026-04-21 21:02 | 34.02997 | -93.28487 | 36070 ft | 417 kts | 234° |
| 2026-04-21 21:02 | 34.01236 | -93.31203 | 36493 ft | 416 kts | 235° |
| 2026-04-21 21:03 | 33.99471 | -93.33926 | 36891 ft | 415 kts | 235° |
| 2026-04-21 21:03 | 33.97686 | -93.36675 | 37261 ft | 415 kts | 235° |
| 2026-04-21 21:03 | 33.95891 | -93.39439 | 37562 ft | 415 kts | 235° |
| 2026-04-21 21:03 | 33.94138 | -93.42136 | 37840 ft | 415 kts | 235° |
| 2026-04-21 21:04 | 33.92357 | -93.44875 | 38125 ft | 414 kts | 235° |
| 2026-04-21 21:04 | 33.90586 | -93.47595 | 38406 ft | 414 kts | 236° |
| 2026-04-21 21:04 | 33.88782 | -93.50365 | 38645 ft | 414 kts | 236° |
| 2026-04-21 21:04 | 33.87013 | -93.53078 | 38869 ft | 414 kts | 236° |
| 2026-04-21 21:05 | 33.85234 | -93.55806 | 39079 ft | 414 kts | 236° |
| 2026-04-21 21:05 | 33.83459 | -93.58524 | 39296 ft | 414 kts | 236° |
| 2026-04-21 21:05 | 33.81663 | -93.61272 | 39481 ft | 414 kts | 236° |
| 2026-04-21 21:05 | 33.79871 | -93.64012 | 39698 ft | 413 kts | 236° |
| 2026-04-21 21:06 | 33.78095 | -93.66726 | 39883 ft | 413 kts | 236° |
| 2026-04-21 21:06 | 33.76348 | -93.69394 | 40067 ft | 413 kts | 236° |
| 2026-04-21 21:06 | 33.74552 | -93.72134 | 40236 ft | 414 kts | 236° |
| 2026-04-21 21:06 | 33.72767 | -93.74857 | 40239 ft | 417 kts | 236° |
| 2026-04-21 21:07 | 33.69127 | -93.80403 | 40240 ft | 424 kts | 236° |
| 2026-04-21 21:07 | 33.65475 | -93.85957 | 40249 ft | 426 kts | 236° |
| 2026-04-21 21:08 | 33.61795 | -93.91544 | 40249 ft | 427 kts | 236° |
| 2026-04-21 21:08 | 33.58103 | -93.97139 | 40257 ft | 426 kts | 236° |
| 2026-04-21 21:09 | 33.54438 | -94.02685 | 40250 ft | 425 kts | 236° |
| 2026-04-21 21:09 | 33.50773 | -94.08247 | 40251 ft | 425 kts | 236° |
| 2026-04-21 21:10 | 33.47191 | -94.13901 | 40252 ft | 426 kts | 237° |
| 2026-04-21 21:10 | 33.43623 | -94.19528 | 40250 ft | 426 kts | 237° |
| 2026-04-21 21:11 | 33.40037 | -94.25172 | 40249 ft | 426 kts | 237° |
| 2026-04-21 21:11 | 33.36451 | -94.30809 | 40242 ft | 425 kts | 237° |
| 2026-04-21 21:12 | 33.32938 | -94.36321 | 40234 ft | 424 kts | 237° |
| 2026-04-21 21:12 | 33.29364 | -94.41921 | 40230 ft | 424 kts | 237° |
| 2026-04-21 21:13 | 33.25805 | -94.47488 | 40231 ft | 424 kts | 237° |
| 2026-04-21 21:13 | 33.22226 | -94.53077 | 40226 ft | 424 kts | 237° |
| 2026-04-21 21:14 | 33.18641 | -94.58669 | 40222 ft | 424 kts | 237° |
| 2026-04-21 21:14 | 33.15056 | -94.64250 | 40221 ft | 424 kts | 237° |
| 2026-04-21 21:15 | 33.11478 | -94.69813 | 40221 ft | 425 kts | 237° |
| 2026-04-21 21:15 | 33.07884 | -94.75394 | 40222 ft | 424 kts | 237° |
| 2026-04-21 21:16 | 33.04275 | -94.80987 | 40224 ft | 424 kts | 237° |
| 2026-04-21 21:16 | 33.00685 | -94.86540 | 40237 ft | 424 kts | 237° |
| 2026-04-21 21:17 | 32.97121 | -94.92046 | 40233 ft | 424 kts | 237° |
| 2026-04-21 21:17 | 32.93527 | -94.97591 | 40218 ft | 425 kts | 237° |
| 2026-04-21 21:18 | 32.89893 | -95.03191 | 40218 ft | 424 kts | 237° |
| 2026-04-21 21:18 | 32.86334 | -95.08668 | 40209 ft | 423 kts | 237° |
| 2026-04-21 21:19 | 32.82727 | -95.14208 | 40212 ft | 422 kts | 237° |
| 2026-04-21 21:19 | 32.79127 | -95.19730 | 40210 ft | 422 kts | 237° |
| 2026-04-21 21:20 | 32.75529 | -95.25242 | 40215 ft | 423 kts | 237° |
| 2026-04-21 21:20 | 32.71927 | -95.30750 | 40215 ft | 423 kts | 237° |
| 2026-04-21 21:21 | 32.68296 | -95.36295 | 40220 ft | 423 kts | 237° |
| 2026-04-21 21:21 | 32.64752 | -95.41702 | 40222 ft | 423 kts | 237° |
| 2026-04-21 21:22 | 32.61100 | -95.47263 | 40227 ft | 423 kts | 237° |
| 2026-04-21 21:22 | 32.57500 | -95.52735 | 40222 ft | 423 kts | 237° |
| 2026-04-21 21:23 | 32.53882 | -95.58228 | 40216 ft | 423 kts | 237° |
| 2026-04-21 21:23 | 32.50252 | -95.63731 | 40215 ft | 422 kts | 237° |
| 2026-04-21 21:24 | 32.46614 | -95.69239 | 40210 ft | 423 kts | 236° |
| 2026-04-21 21:24 | 32.42982 | -95.74730 | 40212 ft | 423 kts | 236° |
| 2026-04-21 21:25 | 32.39360 | -95.80197 | 40218 ft | 422 kts | 236° |
| 2026-04-21 21:25 | 32.35705 | -95.85706 | 40185 ft | 422 kts | 236° |
| 2026-04-21 21:26 | 32.32223 | -95.90945 | 40195 ft | 422 kts | 236° |
| 2026-04-21 21:26 | 32.28615 | -95.96368 | 40186 ft | 421 kts | 236° |
| 2026-04-21 21:27 | 32.24992 | -96.01807 | 40190 ft | 422 kts | 236° |
| 2026-04-21 21:27 | 32.21365 | -96.07243 | 40192 ft | 421 kts | 236° |
| 2026-04-21 21:28 | 32.17729 | -96.12685 | 40191 ft | 421 kts | 236° |
| 2026-04-21 21:29 | 32.12277 | -96.20830 | 40199 ft | 421 kts | 236° |
| 2026-04-21 21:29 | 32.08657 | -96.26228 | 40199 ft | 421 kts | 236° |
| 2026-04-21 21:30 | 32.05031 | -96.31628 | 40205 ft | 421 kts | 236° |
| 2026-04-21 21:30 | 32.01445 | -96.36961 | 40202 ft | 421 kts | 236° |
| 2026-04-21 21:31 | 31.97812 | -96.42356 | 40197 ft | 421 kts | 236° |
| 2026-04-21 21:31 | 31.94142 | -96.47799 | 40184 ft | 422 kts | 236° |
| 2026-04-21 21:31 | 31.92318 | -96.50502 | 39906 ft | 427 kts | 236° |
| 2026-04-21 21:32 | 31.90466 | -96.53246 | 39355 ft | 428 kts | 236° |
| 2026-04-21 21:32 | 31.88625 | -96.55966 | 38825 ft | 424 kts | 237° |
| 2026-04-21 21:32 | 31.86798 | -96.58665 | 38313 ft | 422 kts | 237° |
| 2026-04-21 21:32 | 31.84985 | -96.61344 | 37769 ft | 421 kts | 237° |
| 2026-04-21 21:33 | 31.83165 | -96.64030 | 37217 ft | 421 kts | 237° |
| 2026-04-21 21:33 | 31.81322 | -96.66750 | 36651 ft | 420 kts | 237° |
| 2026-04-21 21:33 | 31.79500 | -96.69436 | 36098 ft | 419 kts | 237° |
| 2026-04-21 21:33 | 31.77677 | -96.72121 | 35539 ft | 419 kts | 237° |
| 2026-04-21 21:34 | 31.75873 | -96.74776 | 34988 ft | 419 kts | 237° |
| 2026-04-21 21:34 | 31.74064 | -96.77437 | 34435 ft | 419 kts | 237° |
| 2026-04-21 21:34 | 31.72231 | -96.80131 | 33879 ft | 419 kts | 237° |
| 2026-04-21 21:34 | 31.70421 | -96.82790 | 33326 ft | 420 kts | 237° |
| 2026-04-21 21:35 | 31.68610 | -96.85448 | 32775 ft | 421 kts | 237° |
| 2026-04-21 21:35 | 31.66760 | -96.88163 | 32213 ft | 422 kts | 237° |
| 2026-04-21 21:35 | 31.64911 | -96.90874 | 31648 ft | 424 kts | 237° |
| 2026-04-21 21:35 | 31.63075 | -96.93564 | 31084 ft | 426 kts | 237° |
| 2026-04-21 21:36 | 31.61224 | -96.96275 | 30523 ft | 428 kts | 237° |
| 2026-04-21 21:36 | 31.59373 | -96.98980 | 29952 ft | 426 kts | 237° |
| 2026-04-21 21:36 | 31.57510 | -97.01701 | 29385 ft | 423 kts | 237° |
| 2026-04-21 21:36 | 31.55684 | -97.04367 | 28825 ft | 421 kts | 237° |
| 2026-04-21 21:37 | 31.53689 | -97.06872 | 28265 ft | 425 kts | 227° |
| 2026-04-21 21:37 | 31.51211 | -97.08820 | 27686 ft | 434 kts | 213° |
| 2026-04-21 21:37 | 31.48362 | -97.10112 | 27081 ft | 438 kts | 205° |
| 2026-04-21 21:37 | 31.45506 | -97.11217 | 26504 ft | 435 kts | 205° |
| 2026-04-21 21:38 | 31.42617 | -97.12344 | 25919 ft | 432 kts | 204° |
| 2026-04-21 21:38 | 31.39791 | -97.13446 | 25350 ft | 425 kts | 204° |
| 2026-04-21 21:38 | 31.37076 | -97.14503 | 24801 ft | 418 kts | 204° |
| 2026-04-21 21:38 | 31.34335 | -97.15572 | 24248 ft | 412 kts | 204° |
| 2026-04-21 21:39 | 31.31646 | -97.16619 | 23714 ft | 405 kts | 203° |
| 2026-04-21 21:39 | 31.28969 | -97.17662 | 23173 ft | 399 kts | 203° |
| 2026-04-21 21:39 | 31.26384 | -97.18669 | 22632 ft | 392 kts | 203° |
| 2026-04-21 21:39 | 31.23792 | -97.19679 | 22117 ft | 388 kts | 203° |
| 2026-04-21 21:40 | 31.21244 | -97.20673 | 21615 ft | 385 kts | 203° |
| 2026-04-21 21:40 | 31.18718 | -97.21658 | 21112 ft | 382 kts | 203° |
| 2026-04-21 21:40 | 31.16197 | -97.22640 | 20612 ft | 379 kts | 203° |
| 2026-04-21 21:40 | 31.13726 | -97.23601 | 20122 ft | 373 kts | 203° |
| 2026-04-21 21:41 | 31.11277 | -97.24554 | 19613 ft | 367 kts | 203° |
| 2026-04-21 21:41 | 31.08865 | -97.25492 | 19132 ft | 360 kts | 203° |
| 2026-04-21 21:41 | 31.06498 | -97.26411 | 18670 ft | 353 kts | 203° |
| 2026-04-21 21:41 | 31.04185 | -97.27310 | 18186 ft | 348 kts | 203° |
| 2026-04-21 21:42 | 31.01889 | -97.28204 | 17496 ft | 349 kts | 203° |
| 2026-04-21 21:42 | 30.99599 | -97.29092 | 17123 ft | 340 kts | 202° |
| 2026-04-21 21:42 | 30.97393 | -97.29948 | 16628 ft | 332 kts | 202° |
| 2026-04-21 21:42 | 30.95221 | -97.30789 | 16230 ft | 322 kts | 203° |
| 2026-04-21 21:43 | 30.93127 | -97.31600 | 15793 ft | 315 kts | 203° |
| 2026-04-21 21:43 | 30.91046 | -97.32412 | 15391 ft | 311 kts | 203° |
| 2026-04-21 21:43 | 30.88981 | -97.33223 | 14962 ft | 310 kts | 203° |
| 2026-04-21 21:43 | 30.86929 | -97.34028 | 14551 ft | 308 kts | 203° |
| 2026-04-21 21:44 | 30.84885 | -97.34829 | 14149 ft | 307 kts | 203° |
| 2026-04-21 21:44 | 30.82863 | -97.35621 | 13728 ft | 305 kts | 202° |
| 2026-04-21 21:44 | 30.80861 | -97.36460 | 13339 ft | 301 kts | 208° |
| 2026-04-21 21:44 | 30.78991 | -97.37511 | 12934 ft | 298 kts | 210° |
| 2026-04-21 21:45 | 30.77139 | -97.38577 | 12542 ft | 296 kts | 210° |
| 2026-04-21 21:45 | 30.75294 | -97.39635 | 12152 ft | 294 kts | 210° |
| 2026-04-21 21:45 | 30.73457 | -97.40688 | 11758 ft | 292 kts | 210° |
| 2026-04-21 21:45 | 30.71645 | -97.41725 | 11374 ft | 290 kts | 210° |
| 2026-04-21 21:46 | 30.69841 | -97.42757 | 10989 ft | 287 kts | 210° |
| 2026-04-21 21:46 | 30.68039 | -97.43787 | 10611 ft | 285 kts | 210° |
| 2026-04-21 21:46 | 30.66274 | -97.44795 | 10231 ft | 284 kts | 210° |
| 2026-04-21 21:46 | 30.64512 | -97.45800 | 9861 ft | 283 kts | 209° |
| 2026-04-21 21:47 | 30.62732 | -97.46815 | 9490 ft | 281 kts | 209° |
| 2026-04-21 21:47 | 30.60990 | -97.47809 | 9115 ft | 279 kts | 209° |
| 2026-04-21 21:47 | 30.59231 | -97.48810 | 8735 ft | 275 kts | 209° |
| 2026-04-21 21:47 | 30.57542 | -97.49771 | 8398 ft | 271 kts | 208° |
| 2026-04-21 21:48 | 30.55848 | -97.50734 | 8026 ft | 266 kts | 208° |
| 2026-04-21 21:48 | 30.54189 | -97.51677 | 7676 ft | 261 kts | 208° |
| 2026-04-21 21:48 | 30.52589 | -97.52586 | 7333 ft | 256 kts | 208° |
| 2026-04-21 21:48 | 30.50994 | -97.53493 | 6997 ft | 251 kts | 207° |
| 2026-04-21 21:49 | 30.49442 | -97.54374 | 6664 ft | 246 kts | 207° |
| 2026-04-21 21:49 | 30.47915 | -97.55241 | 6339 ft | 241 kts | 207° |
| 2026-04-21 21:49 | 30.46411 | -97.56094 | 6017 ft | 236 kts | 206° |
| 2026-04-21 21:49 | 30.44947 | -97.56926 | 5693 ft | 228 kts | 206° |
| 2026-04-21 21:50 | 30.43593 | -97.57793 | 5427 ft | 222 kts | 217° |
| 2026-04-21 21:50 | 30.42472 | -97.59036 | 5116 ft | 222 kts | 223° |
| 2026-04-21 21:50 | 30.41395 | -97.60310 | 4824 ft | 218 kts | 222° |
| 2026-04-21 21:50 | 30.40333 | -97.61557 | 4533 ft | 215 kts | 221° |
| 2026-04-21 21:51 | 30.39296 | -97.62774 | 4251 ft | 212 kts | 221° |
| 2026-04-21 21:51 | 30.38196 | -97.63914 | 3963 ft | 205 kts | 205° |
| 2026-04-21 21:51 | 30.36878 | -97.64420 | 3691 ft | 197 kts | 190° |
| 2026-04-21 21:51 | 30.35548 | -97.64784 | 3403 ft | 196 kts | 190° |
| 2026-04-21 21:52 | 30.34225 | -97.65157 | 3133 ft | 194 kts | 189° |
| 2026-04-21 21:52 | 30.32904 | -97.65530 | 2868 ft | 191 kts | 189° |
| 2026-04-21 21:52 | 30.31602 | -97.65897 | 2606 ft | 190 kts | 187° |
| 2026-04-21 21:52 | 30.30315 | -97.66054 | 2417 ft | 186 kts | 176° |
| 2026-04-21 21:53 | 30.29010 | -97.66015 | 2176 ft | 180 kts | 174° |
| 2026-04-21 21:53 | 30.27834 | -97.65987 | 1964 ft | 168 kts | 174° |
| 2026-04-21 21:53 | 30.26704 | -97.65962 | 1701 ft | 153 kts | 174° |
| 2026-04-21 21:53 | 30.25671 | -97.65936 | 1541 ft | 148 kts | 173° |
| 2026-04-21 21:54 | 30.24627 | -97.65901 | 1351 ft | 142 kts | 174° |
| 2026-04-21 21:54 | 30.23702 | -97.65880 | 1193 ft | 121 kts | 174° |
| 2026-04-21 21:54 | 30.22852 | -97.65861 | 1029 ft | 122 kts | 174° |
| 2026-04-21 21:54 | 30.22000 | -97.65849 | 827 ft | 120 kts | 175° |
| 2026-04-21 21:55 | 30.21172 | -97.65814 | 686 ft | 120 kts | 175° |
| 2026-04-21 21:55 | 30.20317 | -97.65786 | 534 ft | 122 kts | 174° |
| 2026-04-21 21:55 | 30.19549 | -97.65767 | 484 ft | 97 kts | 178° |
| 2026-04-21 21:55 | 30.19011 | -97.65754 | 481 ft | 50 kts | 179° |
| 2026-04-21 21:56 | 30.18740 | -97.65752 | 480 ft | 35 kts | 183° |
| 2026-04-21 21:56 | 30.18592 | -97.65783 | 480 ft | 18 kts | 207° |
| 2026-04-21 21:56 | 30.18528 | -97.65836 | 481 ft | 8 kts | 231° |
| 2026-04-21 21:56 | 30.18518 | -97.65919 | 482 ft | 12 kts | 272° |
| 2026-04-21 21:57 | 30.18515 | -97.66034 | 483 ft | 16 kts | 269° |
| 2026-04-21 21:57 | 30.18514 | -97.66107 | 484 ft | 5 kts | 267° |
| 2026-04-21 21:57 | 30.18488 | -97.66161 | 484 ft | 8 kts | 228° |
| 2026-04-21 21:57 | 30.18479 | -97.66202 | 484 ft | 5 kts | 299° |
| 2026-04-21 21:58 | 30.18487 | -97.66209 | 484 ft | 0 kts | 354° |